createdAt,value
2022-10-05T00:01:43.756Z,100102.19
2022-10-05T00:04:18.644Z,100104.78
2022-10-05T00:06:46.865Z,100106.56
2022-10-05T00:09:18.545Z,100107.50
2022-10-05T00:11:45.688Z,100097.84
2022-10-05T00:14:33.028Z,100096.09
2022-10-05T00:17:01.073Z,100097.84
2022-10-05T00:19:33.017Z,100096.06
2022-10-05T00:22:01.335Z,100093.47
2022-10-05T00:24:28.449Z,100093.44
2022-10-05T00:26:58.110Z,100096.09
2022-10-05T00:29:25.789Z,100086.44
2022-10-05T00:31:52.949Z,100087.31
2022-10-05T00:34:20.138Z,100091.63
2022-10-05T00:36:48.021Z,100082.91
2022-10-05T00:39:15.422Z,100082.88
2022-10-05T00:42:01.219Z,100079.41
2022-10-05T00:44:41.190Z,100082.06
2022-10-05T00:47:18.186Z,100080.25
2022-10-05T00:49:52.685Z,100085.50
2022-10-05T00:52:23.577Z,100090.81
2022-10-05T00:54:50.941Z,100093.41
2022-10-05T00:57:21.602Z,100091.63
2022-10-05T00:59:56.102Z,100085.53
2022-10-05T01:02:34.405Z,100090.81
2022-10-05T01:05:03.828Z,100095.16
2022-10-05T01:07:31.666Z,100097.78
2022-10-05T01:10:17.702Z,100082.03
2022-10-05T01:13:06.667Z,100082.94
2022-10-05T01:15:41.620Z,100093.38
2022-10-05T01:18:17.233Z,100100.41
2022-10-05T01:21:13.888Z,100097.78
2022-10-05T01:23:59.999Z,100099.59
2022-10-05T01:26:45.386Z,100111.81
2022-10-05T01:29:19.144Z,100111.81
2022-10-05T01:31:55.293Z,100115.28
2022-10-05T01:34:26.147Z,100116.19
2022-10-05T01:36:56.305Z,100117.94
2022-10-05T01:39:26.689Z,100122.31
2022-10-05T01:42:13.448Z,100114.41
2022-10-05T01:44:42.777Z,100118.81
2022-10-05T01:47:37.568Z,100120.53
2022-10-05T01:50:08.167Z,100115.25
2022-10-05T01:52:38.518Z,100107.34
2022-10-05T01:55:24.767Z,100107.34
2022-10-05T01:57:51.854Z,100115.28
2022-10-05T02:00:19.593Z,100117.06
2022-10-05T02:02:57.250Z,100115.31
2022-10-05T02:05:24.891Z,100118.81
2022-10-05T02:07:53.911Z,100117.91
2022-10-05T02:10:44.357Z,100131.09
2022-10-05T02:13:13.660Z,100132.81
2022-10-05T02:15:43.194Z,100131.94
2022-10-05T02:18:11.214Z,100137.19
2022-10-05T02:20:39.191Z,100138.06
2022-10-05T02:23:11.565Z,100135.44
2022-10-05T02:25:39.671Z,100129.31
2022-10-05T02:28:08.791Z,100131.09
2022-10-05T02:30:38.274Z,100131.06
2022-10-05T02:33:07.326Z,100128.47
2022-10-05T02:35:34.742Z,100138.06
2022-10-05T02:38:01.878Z,100131.09
2022-10-05T02:40:49.060Z,100139.84
2022-10-05T02:43:16.442Z,100134.56
2022-10-05T02:45:50.875Z,100134.59
2022-10-05T02:48:38.590Z,100134.59
2022-10-05T02:51:08.725Z,100133.72
2022-10-05T02:53:44.881Z,100146.81
2022-10-05T02:56:18.255Z,100144.19
2022-10-05T02:58:45.612Z,100137.19
2022-10-05T03:01:31.907Z,100133.69
2022-10-05T03:03:59.251Z,100145.06
2022-10-05T03:06:27.580Z,100139.78
2022-10-05T03:09:05.747Z,100133.69
2022-10-05T03:11:52.435Z,100131.94
2022-10-05T03:14:25.857Z,100124.06
2022-10-05T03:17:05.557Z,100124.09
2022-10-05T03:19:32.649Z,100126.72
2022-10-05T03:22:09.971Z,100112.72
2022-10-05T03:24:37.759Z,100110.09
2022-10-05T03:27:17.341Z,100113.59
2022-10-05T03:29:47.663Z,100111.84
2022-10-05T03:32:15.155Z,100102.22
2022-10-05T03:34:45.494Z,100110.06
2022-10-05T03:37:15.627Z,100104.84
2022-10-05T03:39:49.503Z,100108.34
2022-10-05T03:42:25.128Z,100117.06
2022-10-05T03:44:52.543Z,100115.34
2022-10-05T03:47:25.541Z,100122.31
2022-10-05T03:50:19.258Z,100117.06
2022-10-05T03:52:58.677Z,100118.84
2022-10-05T03:55:30.310Z,100118.84
2022-10-05T03:57:58.446Z,100124.09
2022-10-05T04:00:27.573Z,100135.44
2022-10-05T04:03:14.080Z,100134.56
2022-10-05T04:05:51.953Z,100138.94
2022-10-05T04:08:19.407Z,100134.59
2022-10-05T04:10:48.308Z,100136.31
2022-10-05T04:13:34.427Z,100133.72
2022-10-05T04:16:04.486Z,100126.72
2022-10-05T04:18:36.137Z,100125.84
2022-10-05T04:21:08.849Z,100125.84
2022-10-05T04:23:39.386Z,100138.94
2022-10-05T04:26:09.063Z,100142.47
2022-10-05T04:28:36.265Z,100145.03
2022-10-05T04:31:03.854Z,100140.69
2022-10-05T04:33:31.894Z,100142.41
2022-10-05T04:35:59.393Z,100137.19
2022-10-05T04:38:29.558Z,100138.06
2022-10-05T04:40:59.865Z,100143.28
2022-10-05T04:43:30.030Z,100143.31
2022-10-05T04:46:03.492Z,100145.06
2022-10-05T04:48:30.557Z,100151.16
2022-10-05T04:51:05.501Z,100145.94
2022-10-05T04:53:35.500Z,100147.66
2022-10-05T04:56:12.898Z,100152.03
2022-10-05T04:58:42.523Z,100156.41
2022-10-05T05:01:10.829Z,100157.28
2022-10-05T05:03:48.987Z,100150.31
2022-10-05T05:06:36.175Z,100141.56
2022-10-05T05:09:10.071Z,100146.78
2022-10-05T05:11:47.032Z,100145.06
2022-10-05T05:14:17.461Z,100143.28
2022-10-05T05:16:46.412Z,100144.16
2022-10-05T05:19:52.671Z,100135.44
2022-10-05T05:22:36.190Z,100133.72
2022-10-05T05:25:22.489Z,100142.41
2022-10-05T05:27:54.827Z,100139.84
2022-10-05T05:30:23.996Z,100145.94
2022-10-05T05:33:05.101Z,100143.31
2022-10-05T05:35:41.710Z,100138.06
2022-10-05T05:38:27.791Z,100153.84
2022-10-05T05:41:08.188Z,100152.94
2022-10-05T05:43:54.826Z,100152.94
2022-10-05T05:46:58.262Z,100161.69
2022-10-05T05:49:30.974Z,100165.78
2022-10-05T05:51:59.723Z,100179.78
2022-10-05T05:54:29.957Z,100180.13
2022-10-05T05:57:08.093Z,100189.37
2022-10-05T05:59:41.543Z,100190.44
2022-10-05T06:02:13.099Z,100187.00
2022-10-05T06:04:40.903Z,100197.19
2022-10-05T06:07:10.281Z,100203.75
2022-10-05T06:09:39.904Z,100204.94
2022-10-05T06:12:12.700Z,100206.06
2022-10-05T06:14:39.791Z,100208.94
2022-10-05T06:17:11.747Z,100217.44
2022-10-05T06:19:39.233Z,100223.66
2022-10-05T06:22:25.309Z,100238.66
2022-10-05T06:24:53.336Z,100250.78
2022-10-05T06:27:27.266Z,100259.75
2022-10-05T06:29:54.848Z,100253.38
2022-10-05T06:32:35.285Z,100250.00
2022-10-05T06:35:08.912Z,100248.78
2022-10-05T06:37:42.270Z,100253.94
2022-10-05T06:40:31.318Z,100252.44
2022-10-05T06:43:02.194Z,100256.84
2022-10-05T06:45:56.922Z,100264.00
2022-10-05T06:48:38.103Z,100277.13
2022-10-05T06:51:14.667Z,100268.34
2022-10-05T06:53:45.842Z,100276.22
2022-10-05T06:56:16.871Z,100266.56
2022-10-05T06:59:03.885Z,100279.75
2022-10-05T07:01:34.297Z,100275.34
2022-10-05T07:04:20.133Z,100277.13
2022-10-05T07:07:01.736Z,100277.13
2022-10-05T07:09:48.471Z,100289.31
2022-10-05T07:12:16.114Z,100291.91
2022-10-05T07:14:51.837Z,100291.97
2022-10-05T07:17:19.219Z,100289.25
2022-10-05T07:19:58.687Z,100292.00
2022-10-05T07:22:41.653Z,100293.69
2022-10-05T07:25:08.826Z,100290.22
2022-10-05T07:27:38.722Z,100279.66
2022-10-05T07:30:12.842Z,100277.81
2022-10-05T07:32:41.013Z,100275.91
2022-10-05T07:35:34.645Z,100284.06
2022-10-05T07:38:11.475Z,100295.50
2022-10-05T07:40:42.821Z,100291.00
2022-10-05T07:43:14.485Z,100289.06
2022-10-05T07:45:42.349Z,100286.53
2022-10-05T07:48:19.538Z,100294.41
2022-10-05T07:50:55.730Z,100291.72
2022-10-05T07:53:25.000Z,100286.50
2022-10-05T07:55:53.430Z,100281.25
2022-10-05T07:58:28.924Z,100292.56
2022-10-05T08:01:08.170Z,100295.97
2022-10-05T08:03:39.961Z,100295.88
2022-10-05T08:06:07.339Z,100297.53
2022-10-05T08:08:53.934Z,100303.66
2022-10-05T08:11:25.407Z,100300.94
2022-10-05T08:13:56.415Z,100307.94
2022-10-05T08:16:25.285Z,100296.16
2022-10-05T08:18:57.054Z,100295.97
2022-10-05T08:21:31.558Z,100311.81
2022-10-05T08:24:00.527Z,100292.34
2022-10-05T08:26:39.988Z,100298.47
2022-10-05T08:29:25.708Z,100294.03
2022-10-05T08:31:57.168Z,100295.31
2022-10-05T08:34:47.673Z,100277.37
2022-10-05T08:37:28.556Z,100273.12
2022-10-05T08:39:58.700Z,100273.63
2022-10-05T08:42:29.166Z,100275.41
2022-10-05T08:45:11.394Z,100271.72
2022-10-05T08:47:38.738Z,100277.22
2022-10-05T08:50:38.357Z,100275.63
2022-10-05T08:53:05.692Z,100254.81
2022-10-05T08:55:34.950Z,100262.12
2022-10-05T08:58:20.997Z,100262.84
2022-10-05T09:00:51.904Z,100267.28
2022-10-05T09:03:37.948Z,100264.34
2022-10-05T09:06:24.162Z,100262.12
2022-10-05T09:09:29.781Z,100256.28
2022-10-05T09:12:15.962Z,100273.66
2022-10-05T09:14:43.058Z,100279.09
2022-10-05T09:17:13.646Z,100277.66
2022-10-05T09:19:43.870Z,100286.97
2022-10-05T09:22:14.261Z,100286.25
2022-10-05T09:24:57.206Z,100292.06
2022-10-05T09:27:30.366Z,100297.13
2022-10-05T09:30:18.568Z,100293.75
2022-10-05T09:33:04.881Z,100300.53
2022-10-05T09:35:45.014Z,100298.34
2022-10-05T09:38:31.667Z,100291.09
2022-10-05T09:41:17.621Z,100290.41
2022-10-05T09:43:51.946Z,100293.06
2022-10-05T09:46:28.712Z,100303.16
2022-10-05T09:49:22.553Z,100296.25
2022-10-05T09:52:02.652Z,100300.53
2022-10-05T09:54:45.386Z,100288.00
2022-10-05T09:57:31.135Z,100290.56
2022-10-05T10:00:21.742Z,100282.09
2022-10-05T10:02:49.244Z,100281.03
2022-10-05T10:05:16.353Z,100286.62
2022-10-05T10:08:04.727Z,100282.22
2022-10-05T10:10:52.462Z,100286.31
2022-10-05T10:13:55.885Z,100288.59
2022-10-05T10:16:34.333Z,100284.59
2022-10-05T10:19:22.196Z,100283.72
2022-10-05T10:21:52.549Z,100292.94
2022-10-05T10:24:24.792Z,100287.69
2022-10-05T10:27:02.206Z,100281.37
2022-10-05T10:29:37.798Z,100282.13
2022-10-05T10:32:05.193Z,100277.59
2022-10-05T10:34:40.312Z,100276.50
2022-10-05T10:37:29.841Z,100279.66
2022-10-05T10:39:56.909Z,100276.78
2022-10-05T10:42:26.249Z,100284.84
2022-10-05T10:44:58.879Z,100282.81
2022-10-05T10:47:42.484Z,100285.44
2022-10-05T10:50:18.426Z,100292.44
2022-10-05T10:53:04.536Z,100280.53
2022-10-05T10:55:35.236Z,100282.09
2022-10-05T10:58:02.560Z,100284.59
2022-10-05T11:00:47.392Z,100276.94
2022-10-05T11:03:33.475Z,100275.00
2022-10-05T11:06:07.761Z,100265.25
2022-10-05T11:08:44.188Z,100271.22
2022-10-05T11:11:25.134Z,100273.59
2022-10-05T11:14:11.150Z,100282.81
2022-10-05T11:16:57.977Z,100278.66
2022-10-05T11:19:59.616Z,100272.81
2022-10-05T11:22:35.820Z,100271.84
2022-10-05T11:25:11.029Z,100268.56
2022-10-05T11:27:56.543Z,100263.63
2022-10-05T11:30:26.915Z,100260.84
2022-10-05T11:32:56.785Z,100268.38
2022-10-05T11:35:27.104Z,100270.59
2022-10-05T11:37:54.177Z,100258.91
2022-10-05T11:40:33.208Z,100252.28
2022-10-05T11:43:03.424Z,100247.34
2022-10-05T11:45:36.958Z,100243.53
2022-10-05T11:48:23.225Z,100231.44
2022-10-05T11:51:09.171Z,100227.50
2022-10-05T11:53:37.640Z,100226.28
2022-10-05T11:56:21.936Z,100232.19
2022-10-05T11:58:55.655Z,100225.38
2022-10-05T12:01:42.835Z,100228.31
2022-10-05T12:04:18.266Z,100229.06
2022-10-05T12:07:04.556Z,100218.91
2022-10-05T12:10:05.439Z,100208.50
2022-10-05T12:12:45.137Z,100209.09
2022-10-05T12:15:23.481Z,100207.31
2022-10-05T12:18:00.121Z,100207.34
2022-10-05T12:20:40.762Z,100209.50
2022-10-05T12:23:13.069Z,100221.34
2022-10-05T12:25:43.633Z,100220.56
2022-10-05T12:28:15.787Z,100216.19
2022-10-05T12:30:58.727Z,100210.53
2022-10-05T12:33:45.110Z,100209.84
2022-10-05T12:36:17.285Z,100213.97
2022-10-05T12:38:44.731Z,100210.53
2022-10-05T12:41:18.714Z,100208.69
2022-10-05T12:43:50.056Z,100207.72
2022-10-05T12:46:49.639Z,100190.56
2022-10-05T12:49:19.968Z,100197.81
2022-10-05T12:51:56.110Z,100184.81
2022-10-05T12:54:35.057Z,100186.13
2022-10-05T12:57:13.082Z,100185.53
2022-10-05T13:00:00.759Z,100187.16
2022-10-05T13:02:42.300Z,100192.16
2022-10-05T13:05:09.637Z,100177.09
2022-10-05T13:07:38.599Z,100172.19
2022-10-05T13:10:09.004Z,100175.72
2022-10-05T13:12:47.928Z,100182.47
2022-10-05T13:15:23.944Z,100174.81
2022-10-05T13:18:18.223Z,100175.69
2022-10-05T13:20:57.937Z,100175.00
2022-10-05T13:23:31.372Z,100174.12
2022-10-05T13:26:01.742Z,100177.44
2022-10-05T13:28:35.457Z,100169.84
2022-10-05T13:31:07.220Z,100174.44
2022-10-05T13:33:49.981Z,100167.28
2022-10-05T13:36:18.975Z,100166.41
2022-10-05T13:38:46.576Z,100165.56
2022-10-05T13:41:45.938Z,100160.31
2022-10-05T13:44:18.950Z,100162.63
2022-10-05T13:46:49.835Z,100164.31
2022-10-05T13:49:22.061Z,100167.53
2022-10-05T13:51:59.005Z,100163.41
2022-10-05T13:54:45.373Z,100158.69
2022-10-05T13:57:48.026Z,100158.84
2022-10-05T14:00:18.794Z,100161.97
2022-10-05T14:02:53.123Z,100161.63
2022-10-05T14:05:27.181Z,100163.34
2022-10-05T14:08:04.146Z,100162.19
2022-10-05T14:10:40.635Z,100158.91
2022-10-05T14:13:27.807Z,100164.38
2022-10-05T14:16:13.525Z,100164.00
2022-10-05T14:19:11.245Z,100153.97
2022-10-05T14:21:57.110Z,100160.09
2022-10-05T14:24:43.579Z,100163.47
2022-10-05T14:27:18.201Z,100163.22
2022-10-05T14:29:45.601Z,100168.25
2022-10-05T14:32:13.771Z,100169.59
2022-10-05T14:34:59.843Z,100171.19
2022-10-05T14:37:32.106Z,100174.34
2022-10-05T14:40:03.369Z,100161.97
2022-10-05T14:42:31.976Z,100164.00
2022-10-05T14:45:00.243Z,100167.69
2022-10-05T14:47:30.260Z,100166.31
2022-10-05T14:50:14.002Z,100162.81
2022-10-05T14:52:43.137Z,100160.28
2022-10-05T14:55:17.773Z,100162.81
2022-10-05T14:57:52.057Z,100166.41
2022-10-05T15:00:19.588Z,100164.47
2022-10-05T15:02:58.977Z,100156.34
2022-10-05T15:05:45.212Z,100171.47
2022-10-05T15:08:31.286Z,100169.03
2022-10-05T15:11:20.210Z,100167.22
2022-10-05T15:13:50.239Z,100160.00
2022-10-05T15:16:24.992Z,100162.56
2022-10-05T15:18:58.232Z,100163.88
2022-10-05T15:21:32.401Z,100163.16
2022-10-05T15:24:00.952Z,100145.91
2022-10-05T15:26:36.267Z,100136.41
2022-10-05T15:29:06.205Z,100132.28
2022-10-05T15:31:39.388Z,100134.03
2022-10-05T15:34:11.444Z,100135.69
2022-10-05T15:36:54.161Z,100134.81
2022-10-05T15:39:25.342Z,100150.06
2022-10-05T15:41:55.450Z,100155.34
2022-10-05T15:44:36.406Z,100141.47
2022-10-05T15:47:05.206Z,100127.88
2022-10-05T15:49:50.928Z,100131.59
2022-10-05T15:52:23.905Z,100127.00
2022-10-05T15:55:09.572Z,100122.41
2022-10-05T15:57:55.647Z,100138.38
2022-10-05T16:00:23.220Z,100139.03
2022-10-05T16:02:52.096Z,100130.69
2022-10-05T16:05:59.500Z,100132.34
2022-10-05T16:08:51.342Z,100134.59
2022-10-05T16:11:30.712Z,100131.72
2022-10-05T16:14:17.477Z,100141.28
2022-10-05T16:17:00.715Z,100138.22
2022-10-05T16:19:47.040Z,100143.75
2022-10-05T16:22:22.222Z,100148.13
2022-10-05T16:25:01.950Z,100144.47
2022-10-05T16:27:42.101Z,100147.62
2022-10-05T16:30:10.495Z,100158.41
2022-10-05T16:32:38.566Z,100161.25
2022-10-05T16:35:10.779Z,100162.47
2022-10-05T16:37:45.342Z,100157.47
2022-10-05T16:40:15.182Z,100160.38
2022-10-05T16:43:01.487Z,100170.19
2022-10-05T16:45:46.871Z,100162.28
2022-10-05T16:48:23.647Z,100168.31
2022-10-05T16:51:09.799Z,100169.97
2022-10-05T16:53:38.636Z,100171.63
2022-10-05T16:56:10.360Z,100171.44
2022-10-05T16:58:56.424Z,100163.19
2022-10-05T17:01:23.567Z,100166.31
2022-10-05T17:03:53.759Z,100173.13
2022-10-05T17:06:31.090Z,100177.31
2022-10-05T17:09:12.018Z,100182.13
2022-10-05T17:12:01.050Z,100184.19
2022-10-05T17:14:31.422Z,100186.31
2022-10-05T17:17:15.826Z,100190.81
2022-10-05T17:19:53.160Z,100192.87
2022-10-05T17:22:23.610Z,100190.75
2022-10-05T17:24:50.941Z,100193.84
2022-10-05T17:27:18.071Z,100192.94
2022-10-05T17:29:47.661Z,100198.62
2022-10-05T17:32:15.711Z,100198.97
2022-10-05T17:35:03.035Z,100200.19
2022-10-05T17:37:36.606Z,100198.19
2022-10-05T17:40:28.609Z,100200.53
2022-10-05T17:43:01.181Z,100194.25
2022-10-05T17:45:31.378Z,100205.91
2022-10-05T17:47:59.527Z,100206.34
2022-10-05T17:50:57.997Z,100209.16
2022-10-05T17:54:02.440Z,100203.53
2022-10-05T17:56:33.775Z,100208.91
2022-10-05T17:59:02.675Z,100208.66
2022-10-05T18:01:31.573Z,100205.75
2022-10-05T18:04:11.294Z,100207.47
2022-10-05T18:06:38.691Z,100198.81
2022-10-05T18:09:20.753Z,100209.91
2022-10-05T18:12:06.602Z,100208.22
2022-10-05T18:14:52.683Z,100196.22
2022-10-05T18:17:42.363Z,100203.47
2022-10-05T18:20:28.422Z,100200.25
2022-10-05T18:23:01.524Z,100202.97
2022-10-05T18:25:29.637Z,100207.72
2022-10-05T18:28:06.199Z,100206.53
2022-10-05T18:30:39.400Z,100202.41
2022-10-05T18:33:33.352Z,100207.22
2022-10-05T18:36:00.894Z,100212.31
2022-10-05T18:38:31.021Z,100210.13
2022-10-05T18:41:18.361Z,100205.75
2022-10-05T18:43:55.419Z,100196.72
2022-10-05T18:46:22.923Z,100206.03
2022-10-05T18:48:50.338Z,100206.78
2022-10-05T18:51:31.571Z,100203.19
2022-10-05T18:53:59.272Z,100203.81
2022-10-05T18:56:45.764Z,100202.63
2022-10-05T18:59:18.569Z,100189.44
2022-10-05T19:01:50.778Z,100185.09
2022-10-05T19:04:24.650Z,100195.06
2022-10-05T19:06:52.147Z,100194.00
2022-10-05T19:09:34.903Z,100195.28
2022-10-05T19:12:09.319Z,100209.91
2022-10-05T19:14:37.904Z,100202.94
2022-10-05T19:17:08.084Z,100199.97
2022-10-05T19:19:38.594Z,100199.81
2022-10-05T19:22:25.144Z,100204.53
2022-10-05T19:24:55.736Z,100216.75
2022-10-05T19:27:27.728Z,100219.44
2022-10-05T19:30:01.338Z,100223.81
2022-10-05T19:32:47.161Z,100211.13
2022-10-05T19:35:19.367Z,100210.44
2022-10-05T19:37:59.219Z,100211.97
2022-10-05T19:40:28.043Z,100219.31
2022-10-05T19:43:01.635Z,100210.16
2022-10-05T19:45:29.612Z,100213.84
2022-10-05T19:48:07.668Z,100215.56
2022-10-05T19:50:35.620Z,100216.78
2022-10-05T19:53:13.327Z,100220.63
2022-10-05T19:55:41.787Z,100228.06
2022-10-05T19:58:26.221Z,100224.84
2022-10-05T20:00:53.714Z,100223.34
2022-10-05T20:03:29.107Z,100221.88
2022-10-05T20:05:57.436Z,100230.25
2022-10-05T20:08:32.217Z,100219.97
2022-10-05T20:11:06.975Z,100230.50
2022-10-05T20:13:35.335Z,100228.81
2022-10-05T20:16:25.362Z,100241.13
2022-10-05T20:19:11.521Z,100248.00
2022-10-05T20:21:52.048Z,100252.59
2022-10-05T20:24:25.959Z,100246.19
2022-10-05T20:27:06.237Z,100243.75
2022-10-05T20:29:40.997Z,100243.87
2022-10-05T20:32:12.676Z,100248.34
2022-10-05T20:34:41.539Z,100253.53
2022-10-05T20:37:11.807Z,100258.81
2022-10-05T20:39:39.033Z,100253.72
2022-10-05T20:42:07.425Z,100250.87
2022-10-05T20:44:34.946Z,100251.81
2022-10-05T20:47:02.120Z,100248.00
2022-10-05T20:49:31.041Z,100247.25
2022-10-05T20:51:58.543Z,100240.87
2022-10-05T20:54:25.985Z,100246.47
2022-10-05T20:56:54.908Z,100249.09
2022-10-05T20:59:22.536Z,100247.37
2022-10-05T21:01:49.698Z,100238.59
2022-10-05T21:04:17.925Z,100239.50
2022-10-05T21:06:45.179Z,100243.59
2022-10-05T21:09:14.927Z,100248.91
2022-10-05T21:11:42.615Z,100246.19
2022-10-05T21:14:10.343Z,100253.56
2022-10-05T21:16:38.341Z,100246.41
2022-10-05T21:19:14.700Z,100251.56
2022-10-05T21:21:42.637Z,100246.19
2022-10-05T21:24:11.200Z,100250.66
2022-10-05T21:26:38.313Z,100245.47
2022-10-05T21:29:10.239Z,100246.16
2022-10-05T21:31:40.042Z,100246.16
2022-10-05T21:34:07.311Z,100254.97
2022-10-05T21:36:36.026Z,100250.78
2022-10-05T21:39:03.477Z,100247.47
2022-10-05T21:41:30.611Z,100241.06
2022-10-05T21:43:57.811Z,100243.59
2022-10-05T21:46:28.156Z,100246.22
2022-10-05T21:48:55.877Z,100244.66
2022-10-05T21:51:23.934Z,100241.03
2022-10-05T21:53:58.419Z,100235.88
2022-10-05T21:56:26.187Z,100239.66
2022-10-05T21:58:53.642Z,100246.69
2022-10-05T22:01:22.898Z,100249.34
2022-10-05T22:03:50.573Z,100243.19
2022-10-05T22:06:17.689Z,100238.59
2022-10-05T22:08:45.016Z,100241.34
2022-10-05T22:11:13.588Z,100241.38
2022-10-05T22:13:41.988Z,100241.47
2022-10-05T22:16:09.143Z,100238.88
2022-10-05T22:18:36.534Z,100235.44
2022-10-05T22:21:04.562Z,100239.78
2022-10-05T22:23:33.666Z,100229.16
2022-10-05T22:26:01.047Z,100230.09
2022-10-05T22:28:28.464Z,100225.66
2022-10-05T22:30:56.016Z,100222.31
2022-10-05T22:33:23.404Z,100224.09
2022-10-05T22:35:50.583Z,100222.44
2022-10-05T22:38:17.688Z,100220.56
2022-10-05T22:40:45.063Z,100222.19
2022-10-05T22:43:12.308Z,100223.00
2022-10-05T22:45:39.550Z,100221.31
2022-10-05T22:48:06.951Z,100219.50
2022-10-05T22:50:34.135Z,100225.62
2022-10-05T22:53:01.313Z,100225.62
2022-10-05T22:55:29.581Z,100220.44
2022-10-05T22:57:56.691Z,100221.28
2022-10-05T23:00:35.164Z,100213.31
2022-10-05T23:03:08.027Z,100207.19
2022-10-05T23:05:35.233Z,100212.53
2022-10-05T23:08:02.359Z,100213.34
2022-10-05T23:10:29.750Z,100204.59
2022-10-05T23:13:00.742Z,100197.50
2022-10-05T23:15:28.314Z,100202.75
2022-10-05T23:17:57.382Z,100200.19
2022-10-05T23:20:24.790Z,100193.94
2022-10-05T23:22:51.942Z,100200.94
2022-10-05T23:25:19.421Z,100192.97
2022-10-05T23:27:46.528Z,100186.88
2022-10-05T23:30:13.675Z,100186.13
2022-10-05T23:32:41.579Z,100186.13
2022-10-05T23:35:09.406Z,100192.97
2022-10-05T23:37:37.459Z,100187.88
2022-10-05T23:40:05.887Z,100183.44
2022-10-05T23:42:33.015Z,100186.19
2022-10-05T23:45:00.168Z,100182.66
2022-10-05T23:47:27.538Z,100189.94
2022-10-05T23:49:55.478Z,100190.53
2022-10-05T23:52:25.134Z,100193.09
2022-10-05T23:54:52.550Z,100187.78
2022-10-05T23:57:19.728Z,100186.84
2022-10-05T23:59:47.082Z,100191.22
